createdAt,value
2022-09-12T00:04:12.730Z,10.9
2022-09-12T00:09:12.784Z,10.8
2022-09-12T00:14:12.739Z,10.7
2022-09-12T00:29:38.998Z,10.4
2022-09-12T00:34:14.308Z,10.4
2022-09-12T00:39:13.076Z,10.3
2022-09-12T00:44:13.138Z,10.3
2022-09-12T00:49:12.976Z,10.3
2022-09-12T00:54:13.286Z,10.2
2022-09-12T00:59:12.919Z,10.1
2022-09-12T01:04:12.908Z,10.1
2022-09-12T01:09:12.903Z,10.1
2022-09-12T01:14:12.910Z,10
2022-09-12T01:19:12.858Z,10
2022-09-12T01:24:12.837Z,9.9
2022-09-12T01:29:12.881Z,9.8
2022-09-12T01:34:12.859Z,9.8
2022-09-12T01:39:12.882Z,9.8
2022-09-12T01:44:13.037Z,9.7
2022-09-12T01:49:12.849Z,9.7
2022-09-12T01:54:12.906Z,9.7
2022-09-12T01:59:12.790Z,9.6
2022-09-12T02:04:13.039Z,9.8
2022-09-12T02:09:12.816Z,9.8
2022-09-12T02:14:12.889Z,9.7
2022-09-12T02:19:12.874Z,9.6
2022-09-12T02:24:12.855Z,9.6
2022-09-12T02:29:12.909Z,9.5
2022-09-12T02:34:12.798Z,9.4
2022-09-12T02:39:12.823Z,9.4
2022-09-12T02:44:13.297Z,9.4
2022-09-12T02:49:12.788Z,9.4
2022-09-12T02:54:12.884Z,9.4
2022-09-12T02:59:12.899Z,9.4
2022-09-12T03:04:12.846Z,9.4
2022-09-12T03:09:13.062Z,9.3
2022-09-12T03:14:13.344Z,9.4
2022-09-12T03:19:12.896Z,9.1
2022-09-12T03:24:12.895Z,9.1
2022-09-12T03:29:12.861Z,9
2022-09-12T03:34:12.790Z,8.9
2022-09-12T03:39:12.915Z,8.8
2022-09-12T03:44:12.875Z,8.9
2022-09-12T03:49:12.933Z,8.8
2022-09-12T03:54:12.914Z,8.8
2022-09-12T03:59:12.891Z,8.8
2022-09-12T04:04:12.888Z,8.8
2022-09-12T04:09:12.903Z,8.6
2022-09-12T04:14:12.898Z,8.6
2022-09-12T04:19:12.833Z,8.6
2022-09-12T04:24:12.869Z,8.7
2022-09-12T04:29:12.855Z,8.6
2022-09-12T04:34:12.848Z,8.6
2022-09-12T04:39:12.922Z,8.6
2022-09-12T04:44:12.873Z,8.6
2022-09-12T04:49:13.053Z,8.5
2022-09-12T04:54:12.926Z,8.4
2022-09-12T04:59:12.871Z,8.4
2022-09-12T05:04:12.854Z,8.3
2022-09-12T05:09:12.854Z,8.3
2022-09-12T05:14:12.970Z,8.3
2022-09-12T05:19:12.888Z,8.4
2022-09-12T05:24:12.921Z,8.4
2022-09-12T05:29:12.966Z,8.6
2022-09-12T05:34:12.927Z,8.4
2022-09-12T05:39:12.926Z,8.6
2022-09-12T05:44:12.882Z,8.7
2022-09-12T05:49:12.868Z,8.8
2022-09-12T05:54:12.903Z,8.8
2022-09-12T05:59:12.872Z,8.9
2022-09-12T06:04:12.885Z,9.1
2022-09-12T06:09:12.914Z,9.3
2022-09-12T06:14:12.879Z,9.6
2022-09-12T06:19:12.971Z,9.7
2022-09-12T06:24:12.914Z,9.7
2022-09-12T06:29:12.980Z,9.9
2022-09-12T06:34:12.950Z,10.3
2022-09-12T06:39:12.909Z,10.4
2022-09-12T06:44:12.917Z,10.4
2022-09-12T06:49:12.920Z,10.6
2022-09-12T06:54:12.933Z,10.8
2022-09-12T06:59:12.931Z,11.1
2022-09-12T07:04:12.940Z,11.1
2022-09-12T07:09:12.939Z,11.3
2022-09-12T07:14:12.849Z,11.4
2022-09-12T07:29:43.768Z,11.9
2022-09-12T07:34:43.779Z,12.1
2022-09-12T07:39:43.791Z,12.4
2022-09-12T07:44:43.734Z,12.6
2022-09-12T07:49:43.721Z,12.8
2022-09-12T07:54:43.703Z,13.1
2022-09-12T07:59:52.335Z,13.5
2022-09-12T08:04:43.725Z,13.9
2022-09-12T08:09:43.773Z,13.9
2022-09-12T08:14:43.701Z,14.4
2022-09-12T08:19:43.749Z,14.5
2022-09-12T08:24:46.928Z,14.8
2022-09-12T08:29:44.287Z,15.1
2022-09-12T08:34:43.773Z,15.4
2022-09-12T08:39:44.109Z,15.8
2022-09-12T08:44:43.792Z,15.9
2022-09-12T08:49:43.915Z,16.3
2022-09-12T08:54:43.803Z,16.8
2022-09-12T08:59:43.994Z,17.1
2022-09-12T09:04:43.712Z,17.9
2022-09-12T09:09:43.789Z,18.1
2022-09-12T09:14:43.836Z,18.8
2022-09-12T09:19:46.694Z,19.1
2022-09-12T09:24:43.823Z,19.3
2022-09-12T09:29:44.035Z,19.8
2022-09-12T09:34:43.792Z,20.6
2022-09-12T09:39:43.788Z,21.1
2022-09-12T09:44:43.740Z,20.3
2022-09-12T09:49:43.768Z,20.8
2022-09-12T09:54:43.830Z,20.4
2022-09-12T09:59:43.854Z,19.9
2022-09-12T10:04:43.807Z,20.4
2022-09-12T10:09:43.777Z,20.1
2022-09-12T10:14:43.832Z,20.2
2022-09-12T10:19:43.812Z,21.1
2022-09-12T10:24:43.920Z,22.1
2022-09-12T10:29:43.754Z,21.8
2022-09-12T10:34:43.747Z,22
2022-09-12T10:39:43.777Z,22
2022-09-12T10:44:43.788Z,21.9
2022-09-12T10:49:43.791Z,22.1
2022-09-12T10:54:43.800Z,22.2
2022-09-12T10:59:43.837Z,22.8
2022-09-12T11:04:43.882Z,22.7
2022-09-12T11:09:43.773Z,22.8
2022-09-12T11:14:43.754Z,22.1
2022-09-12T11:19:43.793Z,21
2022-09-12T11:24:44.528Z,21.3
2022-09-12T11:29:43.896Z,21.9
2022-09-12T11:34:43.798Z,22.9
2022-09-12T11:39:43.822Z,23
2022-09-12T11:44:43.830Z,23.4
2022-09-12T11:49:43.838Z,24.3
2022-09-12T11:54:43.790Z,25.4
2022-09-12T11:59:43.797Z,24.3
2022-09-12T12:04:43.775Z,24.6
2022-09-12T12:09:43.825Z,25.1
2022-09-12T12:14:43.815Z,24.6
2022-09-12T12:19:43.913Z,25.2
2022-09-12T12:24:43.983Z,25.7
2022-09-12T12:29:44.447Z,25.8
2022-09-12T12:34:43.830Z,25.4
2022-09-12T12:39:44.057Z,24.5
2022-09-12T12:44:43.799Z,23.9
2022-09-12T12:49:43.807Z,24.1
2022-09-12T12:54:43.811Z,23.4
2022-09-12T12:59:44.274Z,23.8
2022-09-12T13:04:43.793Z,23.4
2022-09-12T13:09:43.791Z,23.8
2022-09-12T13:14:43.841Z,23.9
2022-09-12T13:19:43.820Z,24
2022-09-12T13:24:43.979Z,23.4
2022-09-12T13:29:44.163Z,23.3
2022-09-12T13:34:43.950Z,23.1
2022-09-12T13:39:44.005Z,22.4
2022-09-12T13:44:45.566Z,22.4
2022-09-12T13:49:43.859Z,22.3
2022-09-12T13:54:43.828Z,22.4
2022-09-12T13:59:43.848Z,22.5
2022-09-12T14:04:43.914Z,22.5
2022-09-12T14:09:43.878Z,22.3
2022-09-12T14:14:43.950Z,22.4
2022-09-12T14:19:43.875Z,22.2
2022-09-12T14:24:43.946Z,22.8
2022-09-12T14:29:43.963Z,23.3
2022-09-12T14:34:43.903Z,23.4
2022-09-12T14:39:43.996Z,23.6
2022-09-12T14:44:44.242Z,22.9
2022-09-12T14:49:43.873Z,22.7
2022-09-12T14:54:43.929Z,22.6
2022-09-12T14:59:43.932Z,22.9
2022-09-12T15:04:43.972Z,23.6
2022-09-12T15:09:47.157Z,24.1
2022-09-12T15:14:43.864Z,23.9
2022-09-12T15:19:43.956Z,23.9
2022-09-12T15:24:44.587Z,24.1
2022-09-12T15:29:43.954Z,23
2022-09-12T15:34:43.934Z,22.6
2022-09-12T15:39:44.236Z,21.9
2022-09-12T15:44:43.899Z,22.4
2022-09-12T15:49:43.859Z,22.5
2022-09-12T15:54:43.872Z,21.9
2022-09-12T15:59:43.854Z,21.6
2022-09-12T16:04:44.036Z,21.3
2022-09-12T16:09:43.917Z,21
2022-09-12T16:14:43.906Z,20.9
2022-09-12T16:19:43.984Z,20.9
2022-09-12T16:24:43.931Z,20.9
2022-09-12T16:29:43.941Z,20.8
2022-09-12T16:34:43.970Z,20.4
2022-09-12T16:39:44.030Z,20.1
2022-09-12T16:44:43.977Z,19.8
2022-09-12T16:49:43.922Z,19.6
2022-09-12T16:54:43.900Z,19.3
2022-09-12T16:59:43.896Z,18.9
2022-09-12T17:04:43.922Z,18.7
2022-09-12T17:09:47.417Z,18.6
2022-09-12T17:14:43.963Z,18.3
2022-09-12T17:19:43.937Z,18.1
2022-09-12T17:24:44.294Z,18
2022-09-12T17:29:43.960Z,17.8
2022-09-12T17:34:43.953Z,17.6
2022-09-12T17:39:43.948Z,17.4
2022-09-12T17:44:43.912Z,17.3
2022-09-12T17:49:43.958Z,17.1
2022-09-12T17:54:43.975Z,17
2022-09-12T17:59:44.086Z,16.9
2022-09-12T18:04:44.081Z,16.8
2022-09-12T18:09:43.973Z,16.6
2022-09-12T18:14:43.975Z,16.5
2022-09-12T18:19:43.953Z,16.4
2022-09-12T18:24:44.030Z,16.4
2022-09-12T18:29:51.927Z,16.3
2022-09-12T18:34:43.974Z,16.2
2022-09-12T18:39:44.369Z,16.1
2022-09-12T18:44:43.991Z,16
2022-09-12T18:49:44.018Z,15.9
2022-09-12T18:54:43.970Z,15.9
2022-09-12T18:59:44.019Z,15.8
2022-09-12T19:04:44.021Z,15.7
2022-09-12T19:09:44.021Z,15.6
2022-09-12T19:14:43.939Z,15.6
2022-09-12T19:19:43.970Z,15.5
2022-09-12T19:24:44.479Z,15.3
2022-09-12T19:29:44.038Z,15.3
2022-09-12T19:34:43.996Z,15.3
2022-09-12T19:39:45.043Z,15.1
2022-09-12T19:44:45.147Z,15.2
2022-09-12T19:49:45.048Z,15.1
2022-09-12T19:54:45.068Z,15.1
2022-09-12T19:59:45.082Z,15.1
2022-09-12T20:04:45.298Z,15.1
2022-09-12T20:09:45.048Z,15.1
2022-09-12T20:14:45.172Z,15.1
2022-09-12T20:19:45.094Z,14.9
2022-09-12T20:24:45.441Z,14.8
2022-09-12T20:29:45.147Z,14.7
2022-09-12T20:34:45.586Z,14.6
2022-09-12T20:39:47.859Z,14.5
2022-09-12T20:44:45.174Z,14.3
2022-09-12T20:49:45.152Z,14.2
2022-09-12T20:54:45.186Z,14.2
2022-09-12T20:59:45.123Z,14.1
2022-09-12T21:04:45.136Z,13.9
2022-09-12T21:09:45.102Z,13.8
2022-09-12T21:14:45.079Z,13.7
2022-09-12T21:19:45.118Z,13.6
2022-09-12T21:24:45.695Z,13.4
2022-09-12T21:29:45.383Z,13.4
2022-09-12T21:34:45.115Z,13.5
2022-09-12T21:39:45.073Z,13.4
2022-09-12T21:44:45.053Z,13.5
2022-09-12T21:49:45.168Z,13.5
2022-09-12T21:54:45.047Z,13.6
2022-09-12T21:59:45.073Z,13.6
2022-09-12T22:04:45.046Z,13.5
2022-09-12T22:09:45.068Z,13.4
2022-09-12T22:14:45.153Z,13.3
2022-09-12T22:19:45.110Z,13.3
2022-09-12T22:24:45.125Z,13.3
2022-09-12T22:29:45.107Z,13.4
2022-09-12T22:34:45.193Z,13.5
2022-09-12T22:39:45.099Z,13.4
2022-09-12T22:44:45.058Z,13.4
2022-09-12T22:49:45.073Z,13.3
2022-09-12T22:54:45.063Z,13.3
2022-09-12T22:59:45.089Z,13.4
2022-09-12T23:04:45.109Z,13.3
2022-09-12T23:09:45.067Z,13.3
2022-09-12T23:14:45.677Z,13.2
2022-09-12T23:19:45.061Z,13
2022-09-12T23:24:45.271Z,12.8
2022-09-12T23:29:45.201Z,12.7
2022-09-12T23:34:45.098Z,12.8
2022-09-12T23:39:45.485Z,12.7
2022-09-12T23:44:45.097Z,12.8
2022-09-12T23:49:45.081Z,12.7
2022-09-12T23:54:45.248Z,12.6
2022-09-12T23:59:45.034Z,12.6
